sensor_id;sensor_type;location;lat;lon;timestamp;P1;durP1;ratioP1;P2;durP2;ratioP2
19167;SDS011;9716;53.114;18.040;2023-03-24T00:01:22;4.75;;;2.60;;
19167;SDS011;9716;53.114;18.040;2023-03-24T00:03:51;4.32;;;2.40;;
19167;SDS011;9716;53.114;18.040;2023-03-24T00:06:19;5.95;;;3.03;;
19167;SDS011;9716;53.114;18.040;2023-03-24T00:08:50;6.28;;;2.72;;
19167;SDS011;9716;53.114;18.040;2023-03-24T00:11:19;4.90;;;2.35;;
19167;SDS011;9716;53.114;18.040;2023-03-24T00:13:47;2.90;;;2.58;;
19167;SDS011;9716;53.114;18.040;2023-03-24T00:16:17;3.38;;;2.75;;
19167;SDS011;9716;53.114;18.040;2023-03-24T00:18:47;7.03;;;2.88;;
19167;SDS011;9716;53.114;18.040;2023-03-24T00:21:20;5.10;;;2.55;;
19167;SDS011;9716;53.114;18.040;2023-03-24T00:23:52;6.00;;;3.10;;
19167;SDS011;9716;53.114;18.040;2023-03-24T00:26:21;3.42;;;2.63;;
19167;SDS011;9716;53.114;18.040;2023-03-24T00:28:51;4.80;;;2.58;;
19167;SDS011;9716;53.114;18.040;2023-03-24T00:31:20;5.57;;;3.05;;
19167;SDS011;9716;53.114;18.040;2023-03-24T00:33:50;3.60;;;2.67;;
19167;SDS011;9716;53.114;18.040;2023-03-24T00:36:20;4.95;;;2.72;;
19167;SDS011;9716;53.114;18.040;2023-03-24T00:38:52;6.88;;;3.03;;
19167;SDS011;9716;53.114;18.040;2023-03-24T00:41:21;4.28;;;2.53;;
19167;SDS011;9716;53.114;18.040;2023-03-24T00:43:53;2.72;;;2.22;;
19167;SDS011;9716;53.114;18.040;2023-03-24T00:46:24;5.15;;;2.70;;
19167;SDS011;9716;53.114;18.040;2023-03-24T00:48:58;6.00;;;2.65;;
19167;SDS011;9716;53.114;18.040;2023-03-24T00:51:32;9.77;;;3.13;;
19167;SDS011;9716;53.114;18.040;2023-03-24T00:54:03;4.28;;;2.58;;
19167;SDS011;9716;53.114;18.040;2023-03-24T00:56:33;6.82;;;2.70;;
19167;SDS011;9716;53.114;18.040;2023-03-24T00:59:03;4.28;;;2.83;;
19167;SDS011;9716;53.114;18.040;2023-03-24T01:01:36;5.82;;;3.08;;
19167;SDS011;9716;53.114;18.040;2023-03-24T01:04:06;6.32;;;2.67;;
19167;SDS011;9716;53.114;18.040;2023-03-24T01:06:36;4.30;;;2.78;;
19167;SDS011;9716;53.114;18.040;2023-03-24T01:09:06;3.50;;;2.70;;
19167;SDS011;9716;53.114;18.040;2023-03-24T01:11:37;3.90;;;2.72;;
19167;SDS011;9716;53.114;18.040;2023-03-24T01:14:07;2.88;;;2.13;;
19167;SDS011;9716;53.114;18.040;2023-03-24T01:16:36;7.57;;;2.63;;
19167;SDS011;9716;53.114;18.040;2023-03-24T01:19:05;4.13;;;3.00;;
19167;SDS011;9716;53.114;18.040;2023-03-24T01:21:35;4.53;;;2.80;;
19167;SDS011;9716;53.114;18.040;2023-03-24T01:24:06;3.80;;;2.65;;
19167;SDS011;9716;53.114;18.040;2023-03-24T01:26:35;4.88;;;2.63;;
19167;SDS011;9716;53.114;18.040;2023-03-24T01:29:03;6.28;;;2.60;;
19167;SDS011;9716;53.114;18.040;2023-03-24T01:31:32;6.10;;;2.17;;
19167;SDS011;9716;53.114;18.040;2023-03-24T01:34:00;4.97;;;2.45;;
19167;SDS011;9716;53.114;18.040;2023-03-24T01:36:29;6.50;;;2.60;;
19167;SDS011;9716;53.114;18.040;2023-03-24T01:38:57;4.40;;;2.80;;
19167;SDS011;9716;53.114;18.040;2023-03-24T01:41:30;8.55;;;3.13;;
19167;SDS011;9716;53.114;18.040;2023-03-24T01:46:51;4.63;;;2.67;;
19167;SDS011;9716;53.114;18.040;2023-03-24T01:49:20;5.22;;;2.88;;
19167;SDS011;9716;53.114;18.040;2023-03-24T01:51:51;3.78;;;2.55;;
19167;SDS011;9716;53.114;18.040;2023-03-24T01:54:22;6.97;;;3.05;;
19167;SDS011;9716;53.114;18.040;2023-03-24T01:56:55;5.07;;;2.78;;
19167;SDS011;9716;53.114;18.040;2023-03-24T01:59:28;5.68;;;2.80;;
19167;SDS011;9716;53.114;18.040;2023-03-24T02:01:58;5.20;;;2.45;;
19167;SDS011;9716;53.114;18.040;2023-03-24T02:04:29;6.38;;;3.35;;
19167;SDS011;9716;53.114;18.040;2023-03-24T02:07:02;4.05;;;2.88;;
19167;SDS011;9716;53.114;18.040;2023-03-24T02:09:35;5.80;;;2.72;;
19167;SDS011;9716;53.114;18.040;2023-03-24T02:12:05;4.85;;;2.83;;
19167;SDS011;9716;53.114;18.040;2023-03-24T02:14:33;6.20;;;3.17;;
19167;SDS011;9716;53.114;18.040;2023-03-24T02:17:18;6.10;;;2.72;;
19167;SDS011;9716;53.114;18.040;2023-03-24T02:29:15;7.35;;;3.42;;
19167;SDS011;9716;53.114;18.040;2023-03-24T02:32:12;4.53;;;2.97;;
19167;SDS011;9716;53.114;18.040;2023-03-24T02:34:59;10.07;;;3.08;;
19167;SDS011;9716;53.114;18.040;2023-03-24T02:37:52;9.35;;;3.47;;
19167;SDS011;9716;53.114;18.040;2023-03-24T02:40:43;6.97;;;3.63;;
19167;SDS011;9716;53.114;18.040;2023-03-24T02:43:17;6.10;;;3.20;;
19167;SDS011;9716;53.114;18.040;2023-03-24T02:45:56;7.15;;;3.72;;
19167;SDS011;9716;53.114;18.040;2023-03-24T02:48:49;7.88;;;3.90;;
19167;SDS011;9716;53.114;18.040;2023-03-24T02:51:30;4.82;;;3.28;;
19167;SDS011;9716;53.114;18.040;2023-03-24T02:54:06;6.05;;;3.53;;
19167;SDS011;9716;53.114;18.040;2023-03-24T02:56:40;6.65;;;4.22;;
19167;SDS011;9716;53.114;18.040;2023-03-24T02:59:15;7.18;;;3.83;;
19167;SDS011;9716;53.114;18.040;2023-03-24T03:01:48;10.73;;;4.75;;
19167;SDS011;9716;53.114;18.040;2023-03-24T03:04:24;6.05;;;3.92;;
19167;SDS011;9716;53.114;18.040;2023-03-24T03:06:56;7.03;;;3.78;;
19167;SDS011;9716;53.114;18.040;2023-03-24T03:09:27;8.07;;;3.90;;
19167;SDS011;9716;53.114;18.040;2023-03-24T03:12:00;11.10;;;4.55;;
19167;SDS011;9716;53.114;18.040;2023-03-24T03:14:31;14.38;;;5.00;;
19167;SDS011;9716;53.114;18.040;2023-03-24T03:17:05;6.05;;;4.03;;
19167;SDS011;9716;53.114;18.040;2023-03-24T03:19:39;6.13;;;3.75;;
19167;SDS011;9716;53.114;18.040;2023-03-24T03:22:12;6.13;;;3.53;;
19167;SDS011;9716;53.114;18.040;2023-03-24T03:24:45;11.90;;;5.03;;
19167;SDS011;9716;53.114;18.040;2023-03-24T03:27:21;10.25;;;4.70;;
19167;SDS011;9716;53.114;18.040;2023-03-24T03:29:53;8.10;;;4.32;;
19167;SDS011;9716;53.114;18.040;2023-03-24T03:32:26;8.63;;;4.32;;
19167;SDS011;9716;53.114;18.040;2023-03-24T03:35:00;6.38;;;4.13;;
19167;SDS011;9716;53.114;18.040;2023-03-24T03:37:35;8.75;;;4.72;;
19167;SDS011;9716;53.114;18.040;2023-03-24T03:40:13;7.78;;;4.88;;
19167;SDS011;9716;53.114;18.040;2023-03-24T03:42:48;9.38;;;5.07;;
19167;SDS011;9716;53.114;18.040;2023-03-24T03:45:17;7.38;;;4.28;;
19167;SDS011;9716;53.114;18.040;2023-03-24T03:47:46;10.68;;;4.93;;
19167;SDS011;9716;53.114;18.040;2023-03-24T03:50:15;10.27;;;4.65;;
19167;SDS011;9716;53.114;18.040;2023-03-24T03:52:44;10.80;;;5.22;;
19167;SDS011;9716;53.114;18.040;2023-03-24T03:55:12;8.57;;;5.07;;
19167;SDS011;9716;53.114;18.040;2023-03-24T03:57:41;16.63;;;6.35;;
19167;SDS011;9716;53.114;18.040;2023-03-24T04:00:16;11.07;;;5.00;;
19167;SDS011;9716;53.114;18.040;2023-03-24T04:02:53;9.23;;;4.93;;
19167;SDS011;9716;53.114;18.040;2023-03-24T04:05:37;7.32;;;4.50;;
19167;SDS011;9716;53.114;18.040;2023-03-24T04:08:22;7.40;;;4.63;;
19167;SDS011;9716;53.114;18.040;2023-03-24T04:11:02;11.40;;;4.95;;
19167;SDS011;9716;53.114;18.040;2023-03-24T04:13:55;10.98;;;5.32;;
19167;SDS011;9716;53.114;18.040;2023-03-24T04:16:43;10.57;;;5.35;;
19167;SDS011;9716;53.114;18.040;2023-03-24T04:19:24;16.20;;;5.22;;
19167;SDS011;9716;53.114;18.040;2023-03-24T04:22:05;13.25;;;5.55;;
19167;SDS011;9716;53.114;18.040;2023-03-24T04:24:45;5.28;;;3.90;;
19167;SDS011;9716;53.114;18.040;2023-03-24T04:27:21;10.20;;;5.00;;
19167;SDS011;9716;53.114;18.040;2023-03-24T04:29:59;9.45;;;4.68;;
19167;SDS011;9716;53.114;18.040;2023-03-24T04:32:37;7.22;;;4.93;;
19167;SDS011;9716;53.114;18.040;2023-03-24T04:35:10;9.05;;;4.93;;
19167;SDS011;9716;53.114;18.040;2023-03-24T04:37:46;16.25;;;5.43;;
19167;SDS011;9716;53.114;18.040;2023-03-24T04:40:15;6.50;;;4.88;;
19167;SDS011;9716;53.114;18.040;2023-03-24T04:42:46;10.93;;;5.20;;
19167;SDS011;9716;53.114;18.040;2023-03-24T04:45:18;10.20;;;4.88;;
19167;SDS011;9716;53.114;18.040;2023-03-24T04:47:53;9.07;;;4.82;;
19167;SDS011;9716;53.114;18.040;2023-03-24T04:50:28;11.55;;;4.85;;
19167;SDS011;9716;53.114;18.040;2023-03-24T04:52:59;8.27;;;4.63;;
19167;SDS011;9716;53.114;18.040;2023-03-24T04:55:43;11.25;;;5.80;;
19167;SDS011;9716;53.114;18.040;2023-03-24T04:58:21;6.35;;;4.90;;
19167;SDS011;9716;53.114;18.040;2023-03-24T05:00:50;7.22;;;4.10;;
19167;SDS011;9716;53.114;18.040;2023-03-24T05:03:19;8.65;;;4.88;;
19167;SDS011;9716;53.114;18.040;2023-03-24T05:05:49;10.95;;;5.00;;
19167;SDS011;9716;53.114;18.040;2023-03-24T05:08:19;12.70;;;5.50;;
19167;SDS011;9716;53.114;18.040;2023-03-24T05:10:48;8.32;;;4.85;;
19167;SDS011;9716;53.114;18.040;2023-03-24T05:13:16;9.80;;;5.25;;
19167;SDS011;9716;53.114;18.040;2023-03-24T05:15:45;9.20;;;5.28;;
19167;SDS011;9716;53.114;18.040;2023-03-24T05:18:13;9.48;;;5.25;;
19167;SDS011;9716;53.114;18.040;2023-03-24T05:20:43;8.77;;;5.35;;
19167;SDS011;9716;53.114;18.040;2023-03-24T05:23:12;12.43;;;6.10;;
19167;SDS011;9716;53.114;18.040;2023-03-24T05:25:40;10.18;;;5.75;;
19167;SDS011;9716;53.114;18.040;2023-03-24T05:28:09;8.80;;;5.07;;
19167;SDS011;9716;53.114;18.040;2023-03-24T05:30:37;7.68;;;4.60;;
19167;SDS011;9716;53.114;18.040;2023-03-24T05:33:06;8.70;;;4.78;;
19167;SDS011;9716;53.114;18.040;2023-03-24T05:35:35;11.20;;;4.80;;
19167;SDS011;9716;53.114;18.040;2023-03-24T05:38:05;9.50;;;6.45;;
19167;SDS011;9716;53.114;18.040;2023-03-24T05:40:34;9.63;;;5.57;;
19167;SDS011;9716;53.114;18.040;2023-03-24T05:43:03;9.88;;;5.60;;
19167;SDS011;9716;53.114;18.040;2023-03-24T05:45:33;10.80;;;4.90;;
19167;SDS011;9716;53.114;18.040;2023-03-24T05:48:02;13.65;;;5.97;;
19167;SDS011;9716;53.114;18.040;2023-03-24T05:50:31;8.70;;;5.13;;
19167;SDS011;9716;53.114;18.040;2023-03-24T05:52:59;14.25;;;5.25;;
19167;SDS011;9716;53.114;18.040;2023-03-24T05:55:29;9.70;;;5.15;;
19167;SDS011;9716;53.114;18.040;2023-03-24T05:57:58;9.70;;;5.00;;
19167;SDS011;9716;53.114;18.040;2023-03-24T06:00:28;11.45;;;5.50;;
19167;SDS011;9716;53.114;18.040;2023-03-24T06:02:57;8.60;;;5.43;;
19167;SDS011;9716;53.114;18.040;2023-03-24T06:05:30;8.02;;;4.97;;
19167;SDS011;9716;53.114;18.040;2023-03-24T06:07:59;10.13;;;5.30;;
19167;SDS011;9716;53.114;18.040;2023-03-24T06:10:29;14.10;;;5.07;;
19167;SDS011;9716;53.114;18.040;2023-03-24T06:12:57;10.20;;;4.47;;
19167;SDS011;9716;53.114;18.040;2023-03-24T06:15:26;14.57;;;5.00;;
19167;SDS011;9716;53.114;18.040;2023-03-24T06:17:59;10.05;;;4.68;;
19167;SDS011;9716;53.114;18.040;2023-03-24T06:20:27;9.38;;;4.07;;
19167;SDS011;9716;53.114;18.040;2023-03-24T06:22:56;10.00;;;4.68;;
19167;SDS011;9716;53.114;18.040;2023-03-24T06:25:25;6.57;;;4.40;;
19167;SDS011;9716;53.114;18.040;2023-03-24T06:27:56;7.13;;;4.22;;
19167;SDS011;9716;53.114;18.040;2023-03-24T06:30:41;7.40;;;4.53;;
19167;SDS011;9716;53.114;18.040;2023-03-24T06:33:10;6.82;;;4.13;;
19167;SDS011;9716;53.114;18.040;2023-03-24T06:35:39;7.45;;;4.18;;
19167;SDS011;9716;53.114;18.040;2023-03-24T06:38:08;8.32;;;4.15;;
19167;SDS011;9716;53.114;18.040;2023-03-24T06:40:37;10.38;;;4.15;;
19167;SDS011;9716;53.114;18.040;2023-03-24T06:43:07;6.95;;;4.43;;
19167;SDS011;9716;53.114;18.040;2023-03-24T06:45:35;6.57;;;3.47;;
19167;SDS011;9716;53.114;18.040;2023-03-24T06:48:05;6.72;;;4.55;;
19167;SDS011;9716;53.114;18.040;2023-03-24T06:50:34;10.27;;;4.47;;
19167;SDS011;9716;53.114;18.040;2023-03-24T06:53:04;7.25;;;3.72;;
19167;SDS011;9716;53.114;18.040;2023-03-24T06:55:32;6.72;;;3.85;;
19167;SDS011;9716;53.114;18.040;2023-03-24T06:58:01;5.50;;;3.72;;
19167;SDS011;9716;53.114;18.040;2023-03-24T07:00:31;7.55;;;4.50;;
19167;SDS011;9716;53.114;18.040;2023-03-24T07:03:00;7.57;;;4.55;;
19167;SDS011;9716;53.114;18.040;2023-03-24T07:05:29;8.45;;;3.45;;
19167;SDS011;9716;53.114;18.040;2023-03-24T07:07:58;9.45;;;4.43;;
19167;SDS011;9716;53.114;18.040;2023-03-24T07:10:30;8.10;;;3.38;;
19167;SDS011;9716;53.114;18.040;2023-03-24T07:12:59;5.47;;;3.55;;
19167;SDS011;9716;53.114;18.040;2023-03-24T07:15:29;7.07;;;3.03;;
19167;SDS011;9716;53.114;18.040;2023-03-24T07:17:58;10.07;;;3.92;;
19167;SDS011;9716;53.114;18.040;2023-03-24T07:20:27;7.70;;;4.45;;
19167;SDS011;9716;53.114;18.040;2023-03-24T07:22:56;10.07;;;4.28;;
19167;SDS011;9716;53.114;18.040;2023-03-24T07:25:24;5.57;;;2.95;;
19167;SDS011;9716;53.114;18.040;2023-03-24T07:27:53;8.13;;;3.70;;
19167;SDS011;9716;53.114;18.040;2023-03-24T07:30:22;8.85;;;4.07;;
19167;SDS011;9716;53.114;18.040;2023-03-24T07:33:07;6.07;;;3.10;;
19167;SDS011;9716;53.114;18.040;2023-03-24T07:35:37;7.10;;;3.75;;
19167;SDS011;9716;53.114;18.040;2023-03-24T07:38:07;6.32;;;3.55;;
19167;SDS011;9716;53.114;18.040;2023-03-24T07:40:36;6.38;;;3.88;;
19167;SDS011;9716;53.114;18.040;2023-03-24T07:43:05;8.73;;;3.75;;
19167;SDS011;9716;53.114;18.040;2023-03-24T07:45:33;7.90;;;3.50;;
19167;SDS011;9716;53.114;18.040;2023-03-24T07:48:02;8.95;;;4.35;;
19167;SDS011;9716;53.114;18.040;2023-03-24T07:50:32;10.02;;;4.15;;
19167;SDS011;9716;53.114;18.040;2023-03-24T07:53:00;6.95;;;4.30;;
19167;SDS011;9716;53.114;18.040;2023-03-24T07:55:28;8.25;;;3.72;;
19167;SDS011;9716;53.114;18.040;2023-03-24T07:57:57;9.98;;;4.32;;
19167;SDS011;9716;53.114;18.040;2023-03-24T08:00:27;7.75;;;3.90;;
19167;SDS011;9716;53.114;18.040;2023-03-24T08:02:55;7.43;;;4.15;;
19167;SDS011;9716;53.114;18.040;2023-03-24T08:05:27;9.43;;;3.55;;
19167;SDS011;9716;53.114;18.040;2023-03-24T08:07:57;5.28;;;3.40;;
19167;SDS011;9716;53.114;18.040;2023-03-24T08:10:26;5.03;;;3.63;;
19167;SDS011;9716;53.114;18.040;2023-03-24T08:12:56;7.60;;;3.90;;
19167;SDS011;9716;53.114;18.040;2023-03-24T08:15:25;5.22;;;3.85;;
19167;SDS011;9716;53.114;18.040;2023-03-24T08:17:54;9.63;;;3.60;;
19167;SDS011;9716;53.114;18.040;2023-03-24T08:20:23;7.25;;;4.43;;
19167;SDS011;9716;53.114;18.040;2023-03-24T08:22:52;8.73;;;3.85;;
19167;SDS011;9716;53.114;18.040;2023-03-24T08:25:23;11.35;;;4.65;;
19167;SDS011;9716;53.114;18.040;2023-03-24T08:27:52;7.32;;;4.13;;
19167;SDS011;9716;53.114;18.040;2023-03-24T08:30:21;6.28;;;3.78;;
19167;SDS011;9716;53.114;18.040;2023-03-24T08:32:51;6.72;;;4.05;;
19167;SDS011;9716;53.114;18.040;2023-03-24T08:35:22;10.13;;;4.35;;
19167;SDS011;9716;53.114;18.040;2023-03-24T08:37:52;5.25;;;3.42;;
19167;SDS011;9716;53.114;18.040;2023-03-24T08:40:22;6.80;;;3.85;;
19167;SDS011;9716;53.114;18.040;2023-03-24T08:42:52;9.25;;;3.80;;
19167;SDS011;9716;53.114;18.040;2023-03-24T08:45:23;7.53;;;3.97;;
19167;SDS011;9716;53.114;18.040;2023-03-24T08:47:54;6.43;;;3.53;;
19167;SDS011;9716;53.114;18.040;2023-03-24T08:50:25;5.75;;;3.45;;
19167;SDS011;9716;53.114;18.040;2023-03-24T08:52:55;7.13;;;3.65;;
19167;SDS011;9716;53.114;18.040;2023-03-24T08:55:26;5.57;;;3.60;;
19167;SDS011;9716;53.114;18.040;2023-03-24T08:57:54;6.88;;;3.67;;
19167;SDS011;9716;53.114;18.040;2023-03-24T09:00:23;5.22;;;3.30;;
19167;SDS011;9716;53.114;18.040;2023-03-24T09:02:52;5.78;;;3.13;;
19167;SDS011;9716;53.114;18.040;2023-03-24T09:05:22;6.72;;;3.47;;
19167;SDS011;9716;53.114;18.040;2023-03-24T09:08:09;3.88;;;2.67;;
19167;SDS011;9716;53.114;18.040;2023-03-24T09:10:42;7.47;;;3.13;;
19167;SDS011;9716;53.114;18.040;2023-03-24T09:13:12;3.95;;;2.30;;
19167;SDS011;9716;53.114;18.040;2023-03-24T09:15:44;8.77;;;2.25;;
19167;SDS011;9716;53.114;18.040;2023-03-24T09:18:14;2.88;;;1.83;;
19167;SDS011;9716;53.114;18.040;2023-03-24T09:20:43;8.65;;;2.33;;
19167;SDS011;9716;53.114;18.040;2023-03-24T09:23:12;3.72;;;2.13;;
19167;SDS011;9716;53.114;18.040;2023-03-24T09:25:43;4.38;;;2.03;;
19167;SDS011;9716;53.114;18.040;2023-03-24T09:28:11;7.53;;;2.75;;
19167;SDS011;9716;53.114;18.040;2023-03-24T09:30:42;4.60;;;2.40;;
19167;SDS011;9716;53.114;18.040;2023-03-24T09:33:10;2.55;;;2.08;;
19167;SDS011;9716;53.114;18.040;2023-03-24T09:35:39;3.65;;;1.95;;
19167;SDS011;9716;53.114;18.040;2023-03-24T09:38:08;2.33;;;2.08;;
19167;SDS011;9716;53.114;18.040;2023-03-24T09:40:38;2.15;;;1.85;;
19167;SDS011;9716;53.114;18.040;2023-03-24T09:43:13;4.22;;;2.13;;
19167;SDS011;9716;53.114;18.040;2023-03-24T09:45:49;4.05;;;2.05;;
19167;SDS011;9716;53.114;18.040;2023-03-24T09:48:19;2.85;;;2.05;;
19167;SDS011;9716;53.114;18.040;2023-03-24T09:50:55;4.05;;;2.35;;
19167;SDS011;9716;53.114;18.040;2023-03-24T09:53:27;4.47;;;2.10;;
19167;SDS011;9716;53.114;18.040;2023-03-24T09:56:03;2.50;;;1.63;;
19167;SDS011;9716;53.114;18.040;2023-03-24T09:58:40;3.88;;;2.33;;
19167;SDS011;9716;53.114;18.040;2023-03-24T10:01:14;2.72;;;1.90;;
19167;SDS011;9716;53.114;18.040;2023-03-24T10:03:44;3.03;;;2.13;;
19167;SDS011;9716;53.114;18.040;2023-03-24T10:06:15;4.70;;;2.13;;
19167;SDS011;9716;53.114;18.040;2023-03-24T10:08:48;2.00;;;1.80;;
19167;SDS011;9716;53.114;18.040;2023-03-24T10:11:26;2.20;;;1.60;;
19167;SDS011;9716;53.114;18.040;2023-03-24T10:14:06;5.72;;;1.67;;
19167;SDS011;9716;53.114;18.040;2023-03-24T10:16:50;2.10;;;1.65;;
19167;SDS011;9716;53.114;18.040;2023-03-24T10:19:35;3.60;;;2.22;;
19167;SDS011;9716;53.114;18.040;2023-03-24T10:22:13;3.20;;;1.95;;
19167;SDS011;9716;53.114;18.040;2023-03-24T10:24:47;1.73;;;1.60;;
19167;SDS011;9716;53.114;18.040;2023-03-24T10:27:23;1.77;;;1.52;;
19167;SDS011;9716;53.114;18.040;2023-03-24T10:29:59;1.92;;;1.70;;
19167;SDS011;9716;53.114;18.040;2023-03-24T10:32:34;2.28;;;1.25;;
19167;SDS011;9716;53.114;18.040;2023-03-24T10:35:03;6.43;;;2.15;;
19167;SDS011;9716;53.114;18.040;2023-03-24T10:37:36;1.70;;;1.33;;
19167;SDS011;9716;53.114;18.040;2023-03-24T10:40:11;7.00;;;2.20;;
19167;SDS011;9716;53.114;18.040;2023-03-24T10:42:44;4.03;;;1.50;;
19167;SDS011;9716;53.114;18.040;2023-03-24T10:45:34;2.00;;;1.67;;
19167;SDS011;9716;53.114;18.040;2023-03-24T10:48:05;1.60;;;1.50;;
19167;SDS011;9716;53.114;18.040;2023-03-24T10:50:35;1.73;;;1.48;;
19167;SDS011;9716;53.114;18.040;2023-03-24T10:53:19;1.92;;;1.42;;
19167;SDS011;9716;53.114;18.040;2023-03-24T10:55:48;1.77;;;1.33;;
19167;SDS011;9716;53.114;18.040;2023-03-24T10:58:19;3.70;;;1.40;;
19167;SDS011;9716;53.114;18.040;2023-03-24T11:00:54;3.28;;;1.83;;
19167;SDS011;9716;53.114;18.040;2023-03-24T11:03:26;3.70;;;1.77;;
19167;SDS011;9716;53.114;18.040;2023-03-24T11:06:00;4.35;;;1.80;;
19167;SDS011;9716;53.114;18.040;2023-03-24T11:08:32;5.85;;;1.90;;
19167;SDS011;9716;53.114;18.040;2023-03-24T11:11:12;3.17;;;1.63;;
19167;SDS011;9716;53.114;18.040;2023-03-24T11:13:42;1.80;;;1.65;;
19167;SDS011;9716;53.114;18.040;2023-03-24T11:16:26;1.40;;;1.30;;
19167;SDS011;9716;53.114;18.040;2023-03-24T11:18:58;2.42;;;1.48;;
19167;SDS011;9716;53.114;18.040;2023-03-24T11:21:28;2.05;;;1.33;;
19167;SDS011;9716;53.114;18.040;2023-03-24T11:23:58;3.75;;;2.05;;
19167;SDS011;9716;53.114;18.040;2023-03-24T11:26:31;6.38;;;1.90;;
19167;SDS011;9716;53.114;18.040;2023-03-24T11:29:02;2.83;;;1.40;;
19167;SDS011;9716;53.114;18.040;2023-03-24T11:31:34;2.28;;;1.38;;
19167;SDS011;9716;53.114;18.040;2023-03-24T11:34:06;1.85;;;1.50;;
19167;SDS011;9716;53.114;18.040;2023-03-24T11:36:45;2.00;;;1.58;;
19167;SDS011;9716;53.114;18.040;2023-03-24T11:39:17;3.58;;;1.88;;
19167;SDS011;9716;53.114;18.040;2023-03-24T11:41:51;2.80;;;1.75;;
19167;SDS011;9716;53.114;18.040;2023-03-24T11:44:29;5.03;;;2.35;;
19167;SDS011;9716;53.114;18.040;2023-03-24T11:47:02;1.95;;;1.65;;
19167;SDS011;9716;53.114;18.040;2023-03-24T11:49:35;3.85;;;1.58;;
19167;SDS011;9716;53.114;18.040;2023-03-24T11:52:08;3.40;;;1.88;;
19167;SDS011;9716;53.114;18.040;2023-03-24T11:54:47;2.10;;;1.60;;
19167;SDS011;9716;53.114;18.040;2023-03-24T11:57:17;5.35;;;1.60;;
19167;SDS011;9716;53.114;18.040;2023-03-24T11:59:52;2.20;;;1.95;;
19167;SDS011;9716;53.114;18.040;2023-03-24T12:02:33;1.90;;;1.60;;
19167;SDS011;9716;53.114;18.040;2023-03-24T12:05:20;2.80;;;1.90;;
19167;SDS011;9716;53.114;18.040;2023-03-24T12:08:03;2.28;;;1.88;;
19167;SDS011;9716;53.114;18.040;2023-03-24T12:10:52;5.05;;;2.13;;
19167;SDS011;9716;53.114;18.040;2023-03-24T12:13:31;2.50;;;2.13;;
19167;SDS011;9716;53.114;18.040;2023-03-24T12:16:06;1.63;;;1.52;;
19167;SDS011;9716;53.114;18.040;2023-03-24T12:18:53;4.15;;;2.15;;
19167;SDS011;9716;53.114;18.040;2023-03-24T12:21:35;5.03;;;2.35;;
19167;SDS011;9716;53.114;18.040;2023-03-24T12:24:15;3.80;;;2.17;;
19167;SDS011;9716;53.114;18.040;2023-03-24T12:26:53;3.63;;;2.10;;
19167;SDS011;9716;53.114;18.040;2023-03-24T12:29:34;3.00;;;1.90;;
19167;SDS011;9716;53.114;18.040;2023-03-24T12:32:15;3.22;;;2.38;;
19167;SDS011;9716;53.114;18.040;2023-03-24T12:35:18;3.00;;;2.33;;
19167;SDS011;9716;53.114;18.040;2023-03-24T12:38:17;3.38;;;2.33;;
19167;SDS011;9716;53.114;18.040;2023-03-24T12:41:08;3.53;;;2.20;;
19167;SDS011;9716;53.114;18.040;2023-03-24T12:43:54;7.07;;;2.33;;
19167;SDS011;9716;53.114;18.040;2023-03-24T12:46:44;6.30;;;2.67;;
19167;SDS011;9716;53.114;18.040;2023-03-24T12:49:33;3.40;;;2.75;;
19167;SDS011;9716;53.114;18.040;2023-03-24T12:52:18;6.22;;;2.70;;
19167;SDS011;9716;53.114;18.040;2023-03-24T12:54:57;5.20;;;3.00;;
19167;SDS011;9716;53.114;18.040;2023-03-24T12:57:31;4.20;;;2.50;;
19167;SDS011;9716;53.114;18.040;2023-03-24T13:00:04;5.18;;;2.90;;
19167;SDS011;9716;53.114;18.040;2023-03-24T13:02:38;2.63;;;2.17;;
19167;SDS011;9716;53.114;18.040;2023-03-24T13:05:13;2.88;;;2.30;;
19167;SDS011;9716;53.114;18.040;2023-03-24T13:07:46;5.15;;;2.80;;
19167;SDS011;9716;53.114;18.040;2023-03-24T13:10:20;4.70;;;2.67;;
19167;SDS011;9716;53.114;18.040;2023-03-24T13:12:53;2.92;;;2.38;;
19167;SDS011;9716;53.114;18.040;2023-03-24T13:15:27;4.47;;;2.50;;
19167;SDS011;9716;53.114;18.040;2023-03-24T13:18:03;2.90;;;1.90;;
19167;SDS011;9716;53.114;18.040;2023-03-24T13:20:45;4.80;;;2.67;;
19167;SDS011;9716;53.114;18.040;2023-03-24T13:23:38;4.57;;;2.45;;
19167;SDS011;9716;53.114;18.040;2023-03-24T13:26:14;4.35;;;3.17;;
19167;SDS011;9716;53.114;18.040;2023-03-24T13:28:52;4.63;;;2.70;;
19167;SDS011;9716;53.114;18.040;2023-03-24T13:31:32;4.93;;;2.70;;
19167;SDS011;9716;53.114;18.040;2023-03-24T13:34:03;3.70;;;2.47;;
19167;SDS011;9716;53.114;18.040;2023-03-24T13:36:40;3.58;;;2.50;;
19167;SDS011;9716;53.114;18.040;2023-03-24T13:39:14;4.30;;;2.60;;
19167;SDS011;9716;53.114;18.040;2023-03-24T13:41:47;5.57;;;2.92;;
19167;SDS011;9716;53.114;18.040;2023-03-24T13:44:18;3.05;;;2.25;;
19167;SDS011;9716;53.114;18.040;2023-03-24T13:46:59;5.07;;;2.50;;
19167;SDS011;9716;53.114;18.040;2023-03-24T13:49:38;13.07;;;2.58;;
19167;SDS011;9716;53.114;18.040;2023-03-24T13:52:21;4.97;;;2.17;;
19167;SDS011;9716;53.114;18.040;2023-03-24T13:54:57;3.03;;;2.13;;
19167;SDS011;9716;53.114;18.040;2023-03-24T13:57:27;5.82;;;2.47;;
19167;SDS011;9716;53.114;18.040;2023-03-24T13:59:57;6.28;;;2.70;;
19167;SDS011;9716;53.114;18.040;2023-03-24T14:02:44;3.92;;;2.40;;
19167;SDS011;9716;53.114;18.040;2023-03-24T14:05:29;2.28;;;1.92;;
19167;SDS011;9716;53.114;18.040;2023-03-24T14:08:13;3.30;;;2.08;;
19167;SDS011;9716;53.114;18.040;2023-03-24T14:10:45;5.78;;;2.38;;
19167;SDS011;9716;53.114;18.040;2023-03-24T14:13:19;3.92;;;2.40;;
19167;SDS011;9716;53.114;18.040;2023-03-24T14:19:07;5.18;;;2.75;;
19167;SDS011;9716;53.114;18.040;2023-03-24T14:21:50;4.25;;;2.28;;
19167;SDS011;9716;53.114;18.040;2023-03-24T14:24:30;4.75;;;2.05;;
19167;SDS011;9716;53.114;18.040;2023-03-24T14:27:00;2.90;;;2.03;;
19167;SDS011;9716;53.114;18.040;2023-03-24T14:29:49;4.93;;;2.00;;
19167;SDS011;9716;53.114;18.040;2023-03-24T14:32:18;3.05;;;2.13;;
19167;SDS011;9716;53.114;18.040;2023-03-24T14:34:50;2.58;;;2.10;;
19167;SDS011;9716;53.114;18.040;2023-03-24T14:37:21;4.75;;;1.90;;
19167;SDS011;9716;53.114;18.040;2023-03-24T14:39:51;3.75;;;2.33;;
19167;SDS011;9716;53.114;18.040;2023-03-24T14:42:40;5.93;;;2.13;;
19167;SDS011;9716;53.114;18.040;2023-03-24T14:48:28;2.40;;;1.90;;
19167;SDS011;9716;53.114;18.040;2023-03-24T14:51:04;5.85;;;2.30;;
19167;SDS011;9716;53.114;18.040;2023-03-24T14:53:46;3.17;;;2.35;;
19167;SDS011;9716;53.114;18.040;2023-03-24T14:56:15;2.45;;;1.80;;
19167;SDS011;9716;53.114;18.040;2023-03-24T14:58:48;3.67;;;2.42;;
19167;SDS011;9716;53.114;18.040;2023-03-24T15:01:23;3.63;;;2.33;;
19167;SDS011;9716;53.114;18.040;2023-03-24T15:03:59;4.75;;;2.35;;
19167;SDS011;9716;53.114;18.040;2023-03-24T15:06:30;4.78;;;2.35;;
19167;SDS011;9716;53.114;18.040;2023-03-24T15:08:59;2.97;;;1.83;;
19167;SDS011;9716;53.114;18.040;2023-03-24T15:11:32;3.03;;;1.90;;
19167;SDS011;9716;53.114;18.040;2023-03-24T15:14:03;2.63;;;1.90;;
19167;SDS011;9716;53.114;18.040;2023-03-24T15:16:34;4.05;;;2.25;;
19167;SDS011;9716;53.114;18.040;2023-03-24T15:19:05;3.55;;;2.40;;
19167;SDS011;9716;53.114;18.040;2023-03-24T15:21:38;6.68;;;1.90;;
19167;SDS011;9716;53.114;18.040;2023-03-24T15:26:53;3.88;;;2.10;;
19167;SDS011;9716;53.114;18.040;2023-03-24T15:29:35;3.33;;;2.15;;
19167;SDS011;9716;53.114;18.040;2023-03-24T15:32:05;2.72;;;1.83;;
19167;SDS011;9716;53.114;18.040;2023-03-24T15:34:45;6.93;;;2.63;;
19167;SDS011;9716;53.114;18.040;2023-03-24T15:37:19;2.10;;;1.90;;
19167;SDS011;9716;53.114;18.040;2023-03-24T15:39:49;2.92;;;2.10;;
19167;SDS011;9716;53.114;18.040;2023-03-24T15:42:31;3.80;;;2.28;;
19167;SDS011;9716;53.114;18.040;2023-03-24T15:45:16;3.63;;;2.20;;